LNI989 WIII-WMKK
Flight info
| Callsign | LNI989 |
|---|---|
| Flight time | N/A |
| Altitude | 32000 |
| Route | DOLTA A585 PKU/N0463F310 N633 SALAX SALAX1H |
| Aircraft | B739/M-SDE2E3FGHIRWXY/LB1 |
Departure
| Time | 2026-05-06 14:16 |
|---|---|
| Airport | Soekarno-Hatta International Airport (WIII) |
Arrival
| Time | N/A |
|---|---|
| Airport | Kuala Lumpur International Airport (WMKK) |
| Time | Latitude | Longitude | Altitude | Speed | Heading |
|---|---|---|---|---|---|
| 2026-05-06 13:52 | -6.13259 | 106.65273 | 36 ft | 0 kts | 336° |
| 2026-05-06 14:09 | -6.13260 | 106.65273 | 37 ft | 2 kts | 336° |
| 2026-05-06 14:09 | -6.13271 | 106.65278 | 36 ft | 2 kts | 336° |
| 2026-05-06 14:09 | -6.13286 | 106.65285 | 35 ft | 2 kts | 336° |
| 2026-05-06 14:10 | -6.13300 | 106.65295 | 35 ft | 2 kts | 284° |
| 2026-05-06 14:10 | -6.13301 | 106.65305 | 33 ft | 0 kts | 252° |
| 2026-05-06 14:12 | -6.13318 | 106.65278 | 36 ft | 10 kts | 222° |
| 2026-05-06 14:12 | -6.13385 | 106.65217 | 37 ft | 13 kts | 194° |
| 2026-05-06 14:12 | -6.13479 | 106.65262 | 37 ft | 18 kts | 156° |
| 2026-05-06 14:12 | -6.13599 | 106.65313 | 37 ft | 20 kts | 159° |
| 2026-05-06 14:13 | -6.13700 | 106.65269 | 38 ft | 20 kts | 247° |
| 2026-05-06 14:13 | -6.13758 | 106.65124 | 36 ft | 25 kts | 249° |
| 2026-05-06 14:13 | -6.13830 | 106.64946 | 36 ft | 30 kts | 249° |
| 2026-05-06 14:13 | -6.13910 | 106.64741 | 38 ft | 34 kts | 249° |
| 2026-05-06 14:14 | -6.14003 | 106.64510 | 38 ft | 36 kts | 249° |
| 2026-05-06 14:14 | -6.14067 | 106.64344 | 37 ft | 14 kts | 249° |
| 2026-05-06 14:14 | -6.14140 | 106.64293 | 39 ft | 8 kts | 162° |
| 2026-05-06 14:14 | -6.14159 | 106.64305 | 39 ft | 0 kts | 149° |
| 2026-05-06 14:15 | -6.14179 | 106.64319 | 40 ft | 13 kts | 141° |
| 2026-05-06 14:15 | -6.14204 | 106.64482 | 39 ft | 39 kts | 75° |
| 2026-05-06 14:15 | -6.14011 | 106.64970 | 37 ft | 119 kts | 68° |
| 2026-05-06 14:15 | -6.13604 | 106.65982 | 48 ft | 190 kts | 68° |
| 2026-05-06 14:16 | -6.13055 | 106.67321 | 656 ft | 216 kts | 67° |
| 2026-05-06 14:16 | -6.12442 | 106.68843 | 1108 ft | 255 kts | 69° |
| 2026-05-06 14:16 | -6.11743 | 106.70586 | 1578 ft | 276 kts | 68° |
| 2026-05-06 14:16 | -6.11114 | 106.72397 | 2509 ft | 272 kts | 83° |
| 2026-05-06 14:17 | -6.11409 | 106.74157 | 3843 ft | 257 kts | 118° |
| 2026-05-06 14:17 | -6.12612 | 106.75418 | 5131 ft | 246 kts | 142° |
| 2026-05-06 14:17 | -6.14127 | 106.76147 | 6280 ft | 242 kts | 161° |
| 2026-05-06 14:17 | -6.15760 | 106.76572 | 7129 ft | 246 kts | 170° |
| 2026-05-06 14:18 | -6.17461 | 106.76291 | 7853 ft | 257 kts | 206° |
| 2026-05-06 14:18 | -6.18904 | 106.75217 | 8641 ft | 264 kts | 225° |
| 2026-05-06 14:18 | -6.19834 | 106.73535 | 8910 ft | 293 kts | 259° |
| 2026-05-06 14:18 | -6.19716 | 106.71473 | 9526 ft | 302 kts | 286° |
| 2026-05-06 14:19 | -6.19103 | 106.69442 | 10258 ft | 308 kts | 288° |
| 2026-05-06 14:19 | -6.18418 | 106.67322 | 10514 ft | 332 kts | 288° |
| 2026-05-06 14:19 | -6.17678 | 106.65036 | 10688 ft | 356 kts | 288° |
| 2026-05-06 14:19 | -6.16919 | 106.62648 | 11050 ft | 369 kts | 288° |
| 2026-05-06 14:20 | -6.16145 | 106.60167 | 11660 ft | 374 kts | 287° |
| 2026-05-06 14:20 | -6.15374 | 106.57662 | 12345 ft | 376 kts | 287° |
| 2026-05-06 14:20 | -6.14603 | 106.55138 | 13002 ft | 380 kts | 287° |
| 2026-05-06 14:20 | -6.13824 | 106.52589 | 13615 ft | 384 kts | 288° |
| 2026-05-06 14:21 | -6.12667 | 106.50154 | 14081 ft | 390 kts | 307° |
| 2026-05-06 14:21 | -6.10736 | 106.48261 | 14721 ft | 388 kts | 327° |
| 2026-05-06 14:21 | -6.08417 | 106.46906 | 15416 ft | 386 kts | 332° |
| 2026-05-06 14:21 | -6.06053 | 106.45599 | 15939 ft | 391 kts | 332° |
| 2026-05-06 14:22 | -6.03657 | 106.44270 | 16435 ft | 395 kts | 332° |
| 2026-05-06 14:22 | -6.01248 | 106.42925 | 16995 ft | 398 kts | 332° |
| 2026-05-06 14:22 | -5.98828 | 106.41562 | 17557 ft | 399 kts | 332° |
| 2026-05-06 14:22 | -5.96436 | 106.40208 | 18086 ft | 402 kts | 331° |
| 2026-05-06 14:23 | -5.93991 | 106.38818 | 18530 ft | 405 kts | 332° |
| 2026-05-06 14:23 | -5.91530 | 106.37417 | 18966 ft | 408 kts | 332° |
| 2026-05-06 14:23 | -5.89056 | 106.36007 | 19407 ft | 410 kts | 331° |
| 2026-05-06 14:23 | -5.86571 | 106.34591 | 19838 ft | 412 kts | 332° |
| 2026-05-06 14:24 | -5.84069 | 106.33164 | 20256 ft | 415 kts | 332° |
| 2026-05-06 14:24 | -5.81551 | 106.31729 | 20636 ft | 418 kts | 332° |
| 2026-05-06 14:24 | -5.79013 | 106.30284 | 21016 ft | 421 kts | 332° |
| 2026-05-06 14:24 | -5.76460 | 106.28829 | 21404 ft | 423 kts | 332° |
| 2026-05-06 14:25 | -5.73892 | 106.27366 | 21777 ft | 425 kts | 332° |
| 2026-05-06 14:25 | -5.71311 | 106.25897 | 22135 ft | 428 kts | 332° |
| 2026-05-06 14:25 | -5.68758 | 106.24443 | 22470 ft | 430 kts | 332° |
| 2026-05-06 14:25 | -5.66148 | 106.22957 | 22816 ft | 433 kts | 332° |
| 2026-05-06 14:26 | -5.63523 | 106.21463 | 23155 ft | 435 kts | 332° |
| 2026-05-06 14:26 | -5.60886 | 106.19962 | 23467 ft | 437 kts | 332° |
| 2026-05-06 14:26 | -5.58228 | 106.18449 | 23722 ft | 440 kts | 332° |
| 2026-05-06 14:26 | -5.55563 | 106.16932 | 23893 ft | 443 kts | 332° |
| 2026-05-06 14:27 | -5.52870 | 106.15400 | 23859 ft | 446 kts | 332° |
| 2026-05-06 14:27 | -5.50150 | 106.13853 | 23881 ft | 452 kts | 332° |
| 2026-05-06 14:27 | -5.47436 | 106.12308 | 23872 ft | 444 kts | 332° |
| 2026-05-06 14:27 | -5.44771 | 106.10791 | 23876 ft | 439 kts | 332° |
| 2026-05-06 14:28 | -5.42105 | 106.09277 | 23886 ft | 441 kts | 332° |
| 2026-05-06 14:28 | -5.39470 | 106.07781 | 23889 ft | 442 kts | 332° |
| 2026-05-06 14:28 | -5.36787 | 106.06257 | 23888 ft | 443 kts | 332° |
| 2026-05-06 14:28 | -5.34098 | 106.04728 | 23887 ft | 447 kts | 332° |
| 2026-05-06 14:29 | -5.31367 | 106.03175 | 23895 ft | 455 kts | 332° |
| 2026-05-06 14:29 | -5.28593 | 106.01598 | 23894 ft | 462 kts | 332° |
| 2026-05-06 14:29 | -5.25783 | 106.00000 | 23898 ft | 467 kts | 332° |
| 2026-05-06 14:29 | -5.22939 | 105.98382 | 23897 ft | 472 kts | 332° |
| 2026-05-06 14:30 | -5.20065 | 105.96747 | 23896 ft | 477 kts | 332° |
| 2026-05-06 14:30 | -5.17166 | 105.95098 | 23898 ft | 480 kts | 332° |
| 2026-05-06 14:30 | -5.14252 | 105.93441 | 23899 ft | 483 kts | 332° |
| 2026-05-06 14:30 | -5.11358 | 105.91796 | 23896 ft | 487 kts | 332° |
| 2026-05-06 14:31 | -5.08405 | 105.90115 | 23915 ft | 489 kts | 332° |
| 2026-05-06 14:31 | -5.05437 | 105.88423 | 23965 ft | 491 kts | 332° |
| 2026-05-06 14:31 | -5.02470 | 105.86732 | 24068 ft | 491 kts | 332° |
| 2026-05-06 14:31 | -4.99501 | 105.85038 | 24184 ft | 491 kts | 332° |
| 2026-05-06 14:32 | -4.96535 | 105.83347 | 24284 ft | 491 kts | 332° |
| 2026-05-06 14:32 | -4.93558 | 105.81650 | 24353 ft | 492 kts | 332° |
| 2026-05-06 14:32 | -4.90580 | 105.79952 | 24412 ft | 493 kts | 332° |
| 2026-05-06 14:32 | -4.87597 | 105.78252 | 24496 ft | 493 kts | 332° |
| 2026-05-06 14:33 | -4.84613 | 105.76552 | 24588 ft | 494 kts | 332° |
| 2026-05-06 14:33 | -4.81629 | 105.74852 | 24672 ft | 494 kts | 332° |
| 2026-05-06 14:33 | -4.78677 | 105.73170 | 24740 ft | 495 kts | 332° |
| 2026-05-06 14:33 | -4.75687 | 105.71467 | 24809 ft | 495 kts | 332° |
| 2026-05-06 14:34 | -4.72685 | 105.69757 | 24861 ft | 497 kts | 332° |
| 2026-05-06 14:34 | -4.69679 | 105.68045 | 24930 ft | 497 kts | 332° |
| 2026-05-06 14:34 | -4.66671 | 105.66332 | 25020 ft | 497 kts | 332° |
| 2026-05-06 14:34 | -4.63665 | 105.64620 | 25104 ft | 497 kts | 332° |
| 2026-05-06 14:35 | -4.60656 | 105.62907 | 25166 ft | 498 kts | 332° |
| 2026-05-06 14:35 | -4.57643 | 105.61192 | 25207 ft | 499 kts | 332° |
| 2026-05-06 14:35 | -4.54623 | 105.59473 | 25256 ft | 500 kts | 332° |
| 2026-05-06 14:35 | -4.51601 | 105.57753 | 25331 ft | 500 kts | 332° |
| 2026-05-06 14:36 | -4.48577 | 105.56032 | 25409 ft | 500 kts | 332° |
| 2026-05-06 14:36 | -4.45554 | 105.54312 | 25469 ft | 500 kts | 332° |
| 2026-05-06 14:36 | -4.42526 | 105.52589 | 25522 ft | 501 kts | 332° |
| 2026-05-06 14:36 | -4.39497 | 105.50865 | 25562 ft | 501 kts | 332° |
| 2026-05-06 14:37 | -4.36504 | 105.49162 | 25624 ft | 501 kts | 332° |
| 2026-05-06 14:37 | -4.33473 | 105.47438 | 25701 ft | 501 kts | 332° |
| 2026-05-06 14:37 | -4.30439 | 105.45712 | 25760 ft | 502 kts | 332° |
| 2026-05-06 14:37 | -4.27400 | 105.43984 | 25795 ft | 502 kts | 332° |
| 2026-05-06 14:38 | -4.24358 | 105.42253 | 25829 ft | 503 kts | 332° |
| 2026-05-06 14:38 | -4.21315 | 105.40523 | 25885 ft | 503 kts | 332° |
| 2026-05-06 14:38 | -4.18269 | 105.38791 | 25949 ft | 503 kts | 332° |
| 2026-05-06 14:38 | -4.15225 | 105.37061 | 26004 ft | 504 kts | 332° |
| 2026-05-06 14:39 | -4.12178 | 105.35328 | 26034 ft | 504 kts | 332° |
| 2026-05-06 14:39 | -4.09126 | 105.33593 | 26061 ft | 505 kts | 332° |
| 2026-05-06 14:39 | -4.06073 | 105.31857 | 26142 ft | 504 kts | 332° |
| 2026-05-06 14:39 | -4.03025 | 105.30124 | 26191 ft | 504 kts | 332° |
| 2026-05-06 14:40 | -3.99971 | 105.28389 | 26177 ft | 505 kts | 332° |
| 2026-05-06 14:40 | -3.96911 | 105.26649 | 26187 ft | 506 kts | 332° |
| 2026-05-06 14:40 | -3.93892 | 105.24933 | 26194 ft | 506 kts | 332° |
| 2026-05-06 14:40 | -3.90829 | 105.23194 | 26196 ft | 506 kts | 332° |
| 2026-05-06 14:41 | -3.87763 | 105.21463 | 26194 ft | 506 kts | 332° |
| 2026-05-06 14:41 | -3.84692 | 105.19735 | 26193 ft | 506 kts | 332° |
| 2026-05-06 14:41 | -3.81700 | 105.17876 | 26132 ft | 509 kts | 321° |
| 2026-05-06 14:41 | -3.79401 | 105.15255 | 26304 ft | 496 kts | 301° |
| 2026-05-06 14:42 | -3.78069 | 105.12159 | 26355 ft | 476 kts | 285° |
| 2026-05-06 14:42 | -3.77555 | 105.08943 | 26407 ft | 463 kts | 272° |
| 2026-05-06 14:42 | -3.77504 | 105.05735 | 26234 ft | 457 kts | 276° |
| 2026-05-06 14:42 | -3.76741 | 105.02712 | 25570 ft | 446 kts | 296° |
| 2026-05-06 14:43 | -3.74965 | 105.00193 | 24800 ft | 442 kts | 319° |